Time;durP1;ratioP1;P1;durP2;ratioP2;P2;SDS_P1;SDS_P2;PMS_P1;PMS_P2;Temp;Humidity;BMP_temperature;BMP_pressure;BME280_temperature;BME280_humidity;BME280_pressure;Samples;Min_cycle;Max_cycle;Signal;HPM_P1;HPM_P2
2022/09/18 00:02:40;;;;;;;4.88;0.68;;;;;;;9.27;100.00;100771.78;6250202;28;20057;-74
2022/09/18 00:05:43;;;;;;;1.75;0.40;;;;;;;9.26;100.00;100775.31;6250416;28;20076;-74
2022/09/18 00:08:44;;;;;;;1.20;0.60;;;;;;;9.33;100.00;100778.50;6250283;28;20060;-74
2022/09/18 00:11:48;;;;;;;4.78;1.60;;;;;;;9.29;100.00;100769.09;6249950;28;20060;-72
2022/09/18 00:14:50;;;;;;;3.75;0.57;;;;;;;9.34;100.00;100777.56;6249607;28;20452;-72
2022/09/18 00:17:52;;;;;;;1.05;0.50;;;;;;;9.39;100.00;100776.44;6250532;28;20054;-73
2022/09/18 00:20:53;;;;;;;5.88;1.05;;;;;;;9.34;100.00;100780.19;6249586;28;20516;-73
2022/09/18 00:23:56;;;;;;;1.65;0.47;;;;;;;9.36;100.00;100773.97;6249753;28;20489;-73
2022/09/18 00:26:57;;;;;;;0.57;0.40;;;;;;;9.35;100.00;100768.78;6249659;28;20517;-72
2022/09/18 00:30:00;;;;;;;2.13;0.63;;;;;;;9.40;100.00;100770.28;6249493;28;20053;-73
2022/09/18 00:33:01;;;;;;;10.40;1.05;;;;;;;9.37;100.00;100782.69;6250348;28;20081;-72
2022/09/18 00:36:05;;;;;;;5.00;0.40;;;;;;;9.40;100.00;100788.66;6249322;28;20053;-75
2022/09/18 00:39:07;;;;;;;2.33;0.90;;;;;;;9.41;100.00;100792.13;6249891;28;20107;-74
2022/09/18 00:42:11;;;;;;;3.90;0.63;;;;;;;9.39;100.00;100786.91;6248902;28;20505;-74
2022/09/18 00:45:14;;;;;;;5.45;0.70;;;;;;;9.37;100.00;100786.16;6249156;28;20435;-72
2022/09/18 00:48:15;;;;;;;6.85;0.98;;;;;;;9.38;100.00;100776.50;6249390;28;20056;-73
2022/09/18 00:51:18;;;;;;;1.30;0.50;;;;;;;9.36;100.00;100788.88;6249110;28;20057;-72
2022/09/18 00:54:23;;;;;;;3.03;0.60;;;;;;;9.40;100.00;100786.03;6248893;28;20050;-72
2022/09/18 00:57:28;;;;;;;4.57;0.60;;;;;;;9.42;100.00;100782.47;6249246;28;20567;-72
2022/09/18 01:00:32;;;;;;;6.85;0.82;;;;;;;9.37;100.00;100788.78;6248783;28;20057;-72
2022/09/18 01:03:33;;;;;;;1.45;0.50;;;;;;;9.28;100.00;100789.22;6249120;28;20050;-73
2022/09/18 01:06:46;;;;;;;3.90;0.75;;;;;;;9.31;100.00;100788.19;6248546;28;20413;-72
2022/09/18 01:09:58;;;;;;;4.70;0.63;;;;;;;9.25;100.00;100796.38;6248726;28;20049;-72
2022/09/18 01:13:04;;;;;;;2.28;0.80;;;;;;;9.15;100.00;100794.19;6248891;28;20053;-72
2022/09/18 01:16:13;;;;;;;3.60;0.50;;;;;;;9.08;100.00;100800.66;6248613;28;20056;-71
2022/09/18 01:19:34;;;;;;;3.47;0.63;;;;;;;9.02;100.00;100803.53;6249047;28;20045;-74
2022/09/18 01:22:47;;;;;;;2.28;0.57;;;;;;;9.02;100.00;100800.06;6256357;28;20683;-74
2022/09/18 01:25:59;;;;;;;3.40;0.55;;;;;;;8.96;100.00;100802.97;6257531;28;20056;-74
2022/09/18 01:29:09;;;;;;;1.42;0.40;;;;;;;9.06;100.00;100805.09;6251478;28;20048;-74
2022/09/18 01:32:19;;;;;;;5.13;1.17;;;;;;;9.04;100.00;100806.94;6247924;28;20057;-75
2022/09/18 01:35:26;;;;;;;4.43;2.17;;;;;;;8.92;100.00;100806.66;6248009;28;20416;-74
2022/09/18 01:38:32;;;;;;;1.25;0.25;;;;;;;8.84;100.00;100812.22;6247631;28;20045;-74
2022/09/18 01:41:37;;;;;;;6.47;0.65;;;;;;;8.90;100.00;100814.56;6248012;28;20072;-75
2022/09/18 01:44:43;;;;;;;0.55;0.50;;;;;;;8.93;100.00;100819.69;6247647;28;20046;-75
2022/09/18 01:47:50;;;;;;;2.10;0.52;;;;;;;8.81;100.00;100807.13;6248274;28;20053;-74
2022/09/18 01:50:55;;;;;;;7.18;0.85;;;;;;;8.86;100.00;100800.78;6247548;28;20045;-75
2022/09/18 01:54:00;;;;;;;1.92;0.60;;;;;;;8.95;100.00;100807.38;6247584;28;20045;-75
2022/09/18 01:57:07;;;;;;;5.88;0.90;;;;;;;8.87;100.00;100807.72;6247720;28;20053;-75
2022/09/18 02:00:12;;;;;;;2.97;1.30;;;;;;;8.94;100.00;100802.19;6247330;28;20424;-75
2022/09/18 02:03:19;;;;;;;5.50;0.50;;;;;;;8.86;100.00;100792.91;6247834;28;20084;-74
2022/09/18 02:06:29;;;;;;;10.40;0.80;;;;;;;8.74;100.00;100797.84;6247166;28;20045;-74
2022/09/18 02:09:31;;;;;;;3.70;0.70;;;;;;;8.70;100.00;100796.28;6247818;28;20048;-74
2022/09/18 02:12:36;;;;;;;7.10;0.60;;;;;;;8.70;100.00;100786.66;6247296;28;20049;-75
2022/09/18 02:15:41;;;;;;;1.15;0.55;;;;;;;8.72;100.00;100784.84;6246809;28;20417;-75
2022/09/18 02:18:48;;;;;;;0.85;0.47;;;;;;;8.66;100.00;100784.25;6247467;28;20049;-74
2022/09/18 02:21:53;;;;;;;3.65;0.95;;;;;;;8.73;100.00;100789.16;6246874;28;20540;-75
2022/09/18 02:24:57;;;;;;;1.10;0.57;;;;;;;8.69;100.00;100791.97;6247044;28;20041;-73
2022/09/18 02:27:59;;;;;;;5.43;0.75;;;;;;;8.76;100.00;100786.38;6246955;28;20456;-75
2022/09/18 02:31:02;;;;;;;1.13;0.43;;;;;;;8.74;100.00;100788.22;6247096;28;20057;-75
2022/09/18 02:34:05;;;;;;;7.53;0.95;;;;;;;8.71;100.00;100790.13;6246567;28;20042;-74
2022/09/18 02:37:20;;;;;;;4.82;0.68;;;;;;;8.75;100.00;100784.66;6247178;28;20056;-75
2022/09/18 02:40:34;;;;;;;5.93;0.40;;;;;;;8.71;100.00;100782.25;6246374;28;20049;-74
2022/09/18 02:43:46;;;;;;;0.40;0.20;;;;;;;8.76;100.00;100782.91;6247112;28;20524;-75
2022/09/18 02:47:00;;;;;;;14.18;0.98;;;;;;;8.70;100.00;100783.19;6246612;28;20489;-74
2022/09/18 02:50:14;;;;;;;4.75;0.28;;;;;;;8.67;100.00;100789.41;6244468;28;20050;-75
2022/09/18 02:53:24;;;;;;;4.68;0.50;;;;;;;8.69;100.00;100779.72;6246893;28;20049;-74
2022/09/18 02:56:33;;;;;;;2.60;0.50;;;;;;;8.79;100.00;100786.22;6246117;28;20045;-75
2022/09/18 02:59:38;;;;;;;3.15;0.40;;;;;;;8.78;100.00;100778.47;6246323;28;20053;-75
2022/09/18 03:02:41;;;;;;;1.42;0.98;;;;;;;8.69;100.00;100778.88;6246492;28;20075;-74
2022/09/18 03:05:42;;;;;;;1.48;0.40;;;;;;;8.68;100.00;100782.41;6246468;28;20045;-74
2022/09/18 03:08:45;;;;;;;8.50;0.57;;;;;;;8.69;100.00;100782.34;6246761;28;20501;-74
2022/09/18 03:11:46;;;;;;;2.85;0.55;;;;;;;8.67;100.00;100783.31;6246027;28;20394;-75
2022/09/18 03:14:47;;;;;;;6.18;0.68;;;;;;;8.69;100.00;100771.84;6246285;28;20050;-75
2022/09/18 03:17:50;;;;;;;1.73;0.30;;;;;;;8.67;100.00;100776.31;6246317;28;20068;-75
2022/09/18 03:20:51;;;;;;;1.17;0.40;;;;;;;8.66;100.00;100779.00;6246177;28;20054;-74
2022/09/18 03:23:53;;;;;;;0.75;0.30;;;;;;;8.71;100.00;100783.09;6246098;28;20493;-75
2022/09/18 03:26:54;;;;;;;1.05;0.65;;;;;;;8.67;100.00;100776.31;6246367;28;20053;-74
2022/09/18 03:29:56;;;;;;;5.88;0.52;;;;;;;8.65;100.00;100772.91;6245825;28;20045;-74
2022/09/18 03:32:59;;;;;;;5.97;0.47;;;;;;;8.66;100.00;100776.38;6246405;28;20049;-75
2022/09/18 03:36:00;;;;;;;5.05;0.35;;;;;;;8.61;100.00;100773.97;6245750;28;20057;-74
2022/09/18 03:39:02;;;;;;;2.00;0.63;;;;;;;8.60;100.00;100782.75;6246309;28;20076;-74
2022/09/18 03:42:03;;;;;;;7.85;0.80;;;;;;;8.59;100.00;100781.06;6245810;28;20497;-74
2022/09/18 03:45:06;;;;;;;5.68;0.43;;;;;;;8.58;100.00;100779.34;6245489;28;20485;-74
2022/09/18 03:48:09;;;;;;;3.75;0.52;;;;;;;8.58;100.00;100781.94;6246097;28;20053;-74
2022/09/18 03:51:10;;;;;;;0.82;0.40;;;;;;;8.63;100.00;100778.22;6245543;28;20061;-75
2022/09/18 03:54:12;;;;;;;0.70;0.40;;;;;;;8.60;100.00;100777.50;6245840;28;20045;-75
2022/09/18 03:57:14;;;;;;;3.17;0.50;;;;;;;8.62;100.00;100771.25;6245832;28;20049;-75
2022/09/18 04:00:16;;;;;;;4.03;0.73;;;;;;;8.50;100.00;100774.44;6245701;28;20101;-74
2022/09/18 04:03:18;;;;;;;2.15;0.50;;;;;;;8.54;100.00;100760.31;6249279;28;20472;-74
2022/09/18 04:06:20;;;;;;;2.95;0.30;;;;;;;8.55;100.00;100755.91;6249933;28;20053;-74
2022/09/18 04:09:21;;;;;;;2.10;0.50;;;;;;;8.58;100.00;100781.94;6250383;28;20053;-74
2022/09/18 04:12:22;;;;;;;2.67;0.75;;;;;;;8.51;100.00;100776.16;6250077;28;20057;-74
2022/09/18 04:15:24;;;;;;;3.78;0.28;;;;;;;8.58;100.00;100771.47;6249913;28;20045;-75
2022/09/18 04:18:27;;;;;;;2.10;0.40;;;;;;;8.56;100.00;100773.31;6249913;28;20413;-74
2022/09/18 04:21:28;;;;;;;1.95;1.30;;;;;;;8.66;100.00;100772.00;6249828;28;20060;-75
2022/09/18 04:24:30;;;;;;;4.10;0.43;;;;;;;8.69;100.00;100768.38;6249543;28;20666;-74
2022/09/18 04:27:33;;;;;;;1.80;0.30;;;;;;;8.65;100.00;100770.28;6249784;28;20072;-74
2022/09/18 04:30:34;;;;;;;2.65;0.55;;;;;;;8.61;100.00;100766.94;6249432;28;20444;-75
2022/09/18 04:33:36;;;;;;;6.15;1.00;;;;;;;8.58;100.00;100769.72;6250001;28;20046;-74
2022/09/18 04:36:38;;;;;;;2.05;0.60;;;;;;;8.58;100.00;100764.50;6249331;28;20052;-74
2022/09/18 04:39:39;;;;;;;5.95;0.70;;;;;;;8.60;100.00;100761.78;6249708;28;20497;-74
2022/09/18 04:42:40;;;;;;;3.40;1.33;;;;;;;8.69;100.00;100768.38;6249242;28;20057;-75
2022/09/18 04:45:44;;;;;;;6.30;0.90;;;;;;;8.59;100.00;100760.94;6249474;28;20053;-74
2022/09/18 04:48:49;;;;;;;5.15;0.60;;;;;;;8.62;100.00;100755.56;6249302;28;20045;-74
2022/09/18 04:51:50;;;;;;;1.70;0.50;;;;;;;8.63;100.00;100762.50;6249325;28;20060;-74
2022/09/18 04:54:51;;;;;;;3.35;1.02;;;;;;;8.70;100.00;100755.22;6248917;28;20400;-74
2022/09/18 04:57:53;;;;;;;5.50;0.77;;;;;;;8.74;100.00;100753.31;6248997;28;20430;-75
2022/09/18 05:00:54;;;;;;;1.55;0.43;;;;;;;8.68;100.00;100759.69;6248957;28;20060;-73
2022/09/18 05:03:56;;;;;;;3.00;0.70;;;;;;;8.71;100.00;100750.81;6248624;28;20045;-73
2022/09/18 05:06:58;;;;;;;3.40;0.63;;;;;;;8.76;100.00;100746.22;6249027;28;20053;-74
2022/09/18 05:09:59;;;;;;;3.60;0.55;;;;;;;8.67;100.00;100760.59;6248423;28;20060;-73
2022/09/18 05:13:01;;;;;;;2.65;0.40;;;;;;;8.66;100.00;100753.66;6248234;28;20049;-74
2022/09/18 05:16:02;;;;;;;0.57;0.43;;;;;;;8.73;100.00;100762.09;6248336;28;20096;-75
2022/09/18 05:19:05;;;;;;;2.08;0.40;;;;;;;8.76;100.00;100765.41;6248917;28;20492;-75
2022/09/18 05:22:06;;;;;;;2.45;0.88;;;;;;;8.73;100.00;100767.34;6248368;28;20060;-74
2022/09/18 05:25:09;;;;;;;1.05;0.30;;;;;;;8.78;100.00;100765.34;6248103;28;20048;-74
2022/09/18 05:28:10;;;;;;;3.22;0.43;;;;;;;8.78;100.00;100765.34;6248218;28;20056;-75
2022/09/18 05:31:11;;;;;;;2.83;0.70;;;;;;;8.81;100.00;100762.56;6247984;28;20048;-72
2022/09/18 05:34:14;;;;;;;2.03;0.63;;;;;;;8.81;100.00;100770.44;6248024;28;20049;-75
2022/09/18 05:37:15;;;;;;;2.67;0.70;;;;;;;8.78;100.00;100770.59;6248149;28;20065;-74
2022/09/18 05:40:17;;;;;;;5.15;0.68;;;;;;;8.78;100.00;100773.22;6248036;28;20060;-75
2022/09/18 05:43:18;;;;;;;2.63;0.90;;;;;;;8.78;100.00;100771.44;6247981;28;20079;-75
2022/09/18 05:46:20;;;;;;;8.98;1.23;;;;;;;8.77;100.00;100767.13;6247721;28;20049;-73
2022/09/18 05:49:22;;;;;;;0.40;0.40;;;;;;;8.84;100.00;100762.44;6247894;28;20143;-74
2022/09/18 05:52:24;;;;;;;5.25;0.65;;;;;;;8.86;100.00;100761.47;6247782;28;20057;-75
2022/09/18 05:55:27;;;;;;;10.88;1.48;;;;;;;8.92;100.00;100762.09;6247594;28;20053;-74
2022/09/18 05:58:28;;;;;;;6.65;1.30;;;;;;;8.95;100.00;100765.44;6247953;28;20097;-74
2022/09/18 06:01:30;;;;;;;4.18;0.60;;;;;;;9.01;100.00;100772.16;6247365;28;20049;-74
2022/09/18 06:04:32;;;;;;;4.55;0.63;;;;;;;9.01;100.00;100778.25;6247388;28;20047;-74
2022/09/18 06:07:34;;;;;;;14.55;0.60;;;;;;;9.06;100.00;100789.38;6247541;28;20512;-74
2022/09/18 06:10:38;;;;;;;7.53;1.00;;;;;;;9.11;100.00;100771.66;6247066;28;20058;-74
2022/09/18 06:13:39;;;;;;;0.70;0.50;;;;;;;9.09;100.00;100780.53;6247473;28;20053;-74
2022/09/18 06:16:40;;;;;;;7.05;0.82;;;;;;;9.08;100.00;100776.19;6246900;28;20053;-74
2022/09/18 06:19:43;;;;;;;0.70;0.50;;;;;;;9.07;100.00;100772.72;6247101;28;20151;-75
2022/09/18 06:22:44;;;;;;;4.10;0.73;;;;;;;9.13;100.00;100774.22;6247328;28;20060;-75
2022/09/18 06:25:45;;;;;;;2.78;0.73;;;;;;;9.15;100.00;100770.59;6246833;28;20053;-72
2022/09/18 06:28:49;;;;;;;2.05;0.38;;;;;;;9.19;100.00;100768.66;6247202;28;20049;-72
2022/09/18 06:31:51;;;;;;;0.98;0.50;;;;;;;9.24;100.00;100768.47;6247131;28;20057;-72
2022/09/18 06:34:54;;;;;;;1.17;0.40;;;;;;;9.32;100.00;100764.56;6246743;28;20056;-73
2022/09/18 06:37:55;;;;;;;0.85;0.45;;;;;;;9.38;100.00;100763.41;6246997;28;20048;-73
2022/09/18 06:40:56;;;;;;;2.05;0.47;;;;;;;9.39;100.00;100763.31;6246599;28;20049;-71
2022/09/18 06:43:58;;;;;;;3.00;1.02;;;;;;;9.45;100.00;100767.44;6246245;28;20045;-71
2022/09/18 06:46:59;;;;;;;2.90;0.85;;;;;;;9.54;100.00;100768.78;6247019;28;20052;-73
2022/09/18 06:50:02;;;;;;;1.20;0.50;;;;;;;9.72;100.00;100767.00;6246453;28;20052;-72
2022/09/18 06:53:05;;;;;;;5.30;0.73;;;;;;;9.84;100.00;100763.75;6247104;28;20045;-73
2022/09/18 06:56:06;;;;;;;5.47;0.82;;;;;;;9.92;100.00;100764.22;6246094;28;20045;-72
2022/09/18 06:59:08;;;;;;;2.22;0.50;;;;;;;10.03;100.00;100767.16;6259405;28;20052;-72
2022/09/18 07:02:12;;;;;;;1.80;0.52;;;;;;;10.14;100.00;100764.00;6264748;28;20049;-72
2022/09/18 07:05:15;;;;;;;11.45;1.80;;;;;;;10.28;100.00;100772.03;6264746;28;20041;-71
2022/09/18 07:08:16;;;;;;;1.58;0.73;;;;;;;10.16;100.00;100770.84;6271125;28;20056;-71
2022/09/18 07:11:17;;;;;;;2.70;0.70;;;;;;;10.11;100.00;100777.28;6270764;28;20058;-71
2022/09/18 07:14:18;;;;;;;5.78;0.73;;;;;;;9.96;100.00;100776.28;6270777;28;20048;-70
2022/09/18 07:17:20;;;;;;;3.70;0.52;;;;;;;9.91;100.00;100773.03;6270828;28;20048;-71
2022/09/18 07:20:23;;;;;;;9.35;1.00;;;;;;;9.98;100.00;100774.41;6270845;28;20709;-71
2022/09/18 07:23:25;;;;;;;2.47;1.02;;;;;;;9.93;100.00;100773.81;6270949;28;20045;-71
2022/09/18 07:26:26;;;;;;;7.22;1.13;;;;;;;9.95;100.00;100768.47;6270466;28;20059;-71
2022/09/18 07:29:27;;;;;;;7.25;0.88;;;;;;;10.00;100.00;100772.56;6270899;28;20608;-72
2022/09/18 07:32:29;;;;;;;0.98;0.50;;;;;;;10.14;100.00;100770.09;6270898;28;20049;-71
2022/09/18 07:35:32;;;;;;;11.93;0.73;;;;;;;10.18;100.00;100777.81;6270537;28;20048;-70
2022/09/18 07:38:34;;;;;;;2.03;0.30;;;;;;;10.25;100.00;100782.69;6275372;28;20049;-72
2022/09/18 07:41:35;;;;;;;4.55;0.60;;;;;;;10.29;100.00;100765.84;6275399;28;20263;-72
2022/09/18 07:44:37;;;;;;;2.50;0.65;;;;;;;10.35;100.00;100764.69;6275137;28;20052;-72
2022/09/18 07:47:38;;;;;;;7.80;0.50;;;;;;;10.46;100.00;100772.03;6275476;28;20049;-73
2022/09/18 07:50:41;;;;;;;5.93;0.52;;;;;;;10.46;100.00;100769.41;6275095;28;20515;-73
2022/09/18 07:53:42;;;;;;;2.28;0.95;;;;;;;10.46;100.00;100767.63;6275082;28;20052;-72
2022/09/18 07:56:44;;;;;;;7.00;0.75;;;;;;;10.52;100.00;100769.91;6262291;28;20046;-73
2022/09/18 07:59:45;;;;;;;0.30;0.30;;;;;;;10.50;100.00;100773.56;6234322;28;20140;-73
2022/09/18 08:02:47;;;;;;;2.55;1.08;;;;;;;10.47;100.00;100764.06;6247473;28;20052;-73
2022/09/18 08:05:52;;;;;;;1.50;0.60;;;;;;;10.49;100.00;100770.09;6238497;28;20085;-72
2022/09/18 08:08:53;;;;;;;0.63;0.43;;;;;;;10.55;100.00;100759.25;6225793;28;20060;-73
2022/09/18 08:11:55;;;;;;;5.53;0.52;;;;;;;10.60;100.00;100774.78;6225695;28;20049;-72
2022/09/18 08:14:56;;;;;;;5.85;0.38;;;;;;;10.64;100.00;100766.63;6241622;28;20049;-72
2022/09/18 08:17:57;;;;;;;5.63;1.85;;;;;;;10.65;100.00;100770.97;6238021;28;20041;-71
2022/09/18 08:21:00;;;;;;;0.30;0.30;;;;;;;10.68;100.00;100753.34;6239185;28;20050;-72
2022/09/18 08:24:02;;;;;;;5.47;0.60;;;;;;;10.68;100.00;100767.34;6225736;28;20057;-73
2022/09/18 08:27:04;;;;;;;4.00;0.40;;;;;;;10.69;100.00;100766.41;6249396;28;20053;-72
2022/09/18 08:30:07;;;;;;;2.85;0.40;;;;;;;10.74;100.00;100771.41;6249461;28;20045;-72
2022/09/18 08:33:08;;;;;;;6.30;0.80;;;;;;;10.83;100.00;100770.91;6250019;28;20056;-73
2022/09/18 08:36:11;;;;;;;1.67;0.70;;;;;;;10.84;100.00;100768.19;6249330;28;20175;-74
2022/09/18 08:39:12;;;;;;;2.95;0.80;;;;;;;10.89;100.00;100773.19;6249801;28;20062;-72
2022/09/18 08:42:24;;;;;;;0.57;0.45;;;;;;;10.89;100.00;100767.94;6249129;28;20057;-73
2022/09/18 08:45:38;;;;;;;1.77;0.70;;;;;;;10.91;100.00;100759.06;6249378;28;20041;-73
2022/09/18 08:48:47;;;;;;;6.43;1.13;;;;;;;10.95;100.00;100757.09;6248065;28;20061;-73
2022/09/18 08:51:54;;;;;;;2.95;0.60;;;;;;;10.99;100.00;100747.25;6230453;28;20057;-73
2022/09/18 08:55:03;;;;;;;1.83;0.40;;;;;;;10.96;100.00;100748.28;6224342;28;20042;-73
2022/09/18 08:58:10;;;;;;;0.40;0.30;;;;;;;10.97;100.00;100746.50;6224965;28;20054;-74
2022/09/18 09:01:16;;;;;;;0.47;0.40;;;;;;;11.07;100.00;100748.53;6224086;28;20057;-74
2022/09/18 09:04:22;;;;;;;2.80;0.43;;;;;;;11.12;100.00;100748.25;6224167;28;20448;-74
2022/09/18 09:07:42;;;;;;;4.82;0.60;;;;;;;11.21;100.00;100749.53;6224216;28;20053;-73
2022/09/18 09:10:49;;;;;;;4.38;0.50;;;;;;;11.20;100.00;100751.31;6224042;28;20045;-73
2022/09/18 09:14:06;;;;;;;1.92;0.50;;;;;;;11.27;100.00;100749.22;6223984;28;20528;-73
2022/09/18 09:17:16;;;;;;;1.75;0.50;;;;;;;11.33;100.00;100760.22;6224309;28;20056;-73
2022/09/18 09:20:22;;;;;;;3.47;0.70;;;;;;;11.38;100.00;100752.06;6223841;28;20053;-73
2022/09/18 09:23:41;;;;;;;4.72;0.50;;;;;;;11.30;100.00;100746.38;6224042;28;20103;-74
2022/09/18 09:26:43;;;;;;;0.70;0.40;;;;;;;11.32;100.00;100741.91;6223794;28;20457;-74
2022/09/18 09:29:46;;;;;;;8.55;0.50;;;;;;;11.37;100.00;100745.97;6223731;28;20494;-74
2022/09/18 09:32:52;;;;;;;0.28;0.28;;;;;;;11.38;100.00;100736.28;6224157;28;20049;-74
2022/09/18 09:35:57;;;;;;;3.72;0.70;;;;;;;11.37;100.00;100735.44;6223560;28;20056;-74
2022/09/18 09:39:08;;;;;;;6.97;1.15;;;;;;;11.33;100.00;100727.81;6223717;28;20050;-74
2022/09/18 09:42:16;;;;;;;5.78;0.65;;;;;;;11.37;100.00;100730.19;6223162;28;20080;-73
2022/09/18 09:45:24;;;;;;;0.77;0.20;;;;;;;11.46;100.00;100714.81;6223129;28;20057;-73
2022/09/18 09:48:30;;;;;;;0.60;0.40;;;;;;;11.57;100.00;100718.50;6223706;28;20494;-75
2022/09/18 09:51:39;;;;;;;1.17;0.35;;;;;;;11.64;100.00;100708.47;6222898;28;20050;-74
2022/09/18 09:54:42;;;;;;;2.10;0.40;;;;;;;11.65;100.00;100704.91;6223179;28;20502;-74
2022/09/18 09:57:51;;;;;;;1.05;0.77;;;;;;;11.69;100.00;100695.88;6223163;28;20058;-73
2022/09/18 10:01:01;;;;;;;0.82;0.60;;;;;;;11.68;100.00;100692.41;6222596;28;20053;-73
2022/09/18 10:04:18;;;;;;;0.40;0.30;;;;;;;11.72;100.00;100708.00;6222830;28;20049;-74
2022/09/18 10:07:25;;;;;;;2.20;0.60;;;;;;;11.63;100.00;100694.47;6285132;22;20061;-77
2022/09/18 10:10:35;;;;;;;3.05;0.80;;;;;;;11.61;100.00;100704.22;6247452;28;20056;-77
2022/09/18 10:13:41;;;;;;;2.33;0.90;;;;;;;11.58;100.00;100685.13;6247456;28;20052;-77
2022/09/18 10:16:47;;;;;;;3.00;0.45;;;;;;;11.65;100.00;100702.28;6247506;28;20050;-76
2022/09/18 10:19:49;;;;;;;3.13;0.55;;;;;;;11.81;100.00;100708.34;6247454;28;20056;-77
2022/09/18 10:22:51;;;;;;;0.47;0.32;;;;;;;11.84;100.00;100702.91;6247569;28;20049;-76
2022/09/18 10:25:56;;;;;;;0.47;0.30;;;;;;;11.72;100.00;100702.75;6245531;28;20053;-77
2022/09/18 10:28:59;;;;;;;5.70;0.60;;;;;;;11.69;100.00;100691.47;6245463;28;20049;-77
2022/09/18 10:32:01;;;;;;;8.18;0.80;;;;;;;11.76;100.00;100702.47;6245297;28;20097;-76
2022/09/18 10:35:33;;;;;;;0.30;0.30;;;;;;;11.56;100.00;100684.38;6245145;28;20045;-76
2022/09/18 10:38:36;;;;;;;2.38;0.63;;;;;;;11.50;100.00;100695.28;6243857;28;20049;-76
2022/09/18 10:41:40;;;;;;;2.20;0.50;;;;;;;11.56;100.00;100687.84;6247797;28;20056;-73
2022/09/18 10:44:43;;;;;;;1.40;0.32;;;;;;;11.47;100.00;100683.13;6243467;28;20072;-75
2022/09/18 10:47:45;;;;;;;4.20;0.47;;;;;;;11.43;100.00;100694.78;6246582;28;20045;-77
2022/09/18 10:50:52;;;;;;;0.80;0.30;;;;;;;11.34;100.00;100690.03;6244137;28;20089;-76
2022/09/18 10:54:03;;;;;;;1.13;0.30;;;;;;;11.45;100.00;100695.53;6245536;28;20465;-77
2022/09/18 10:57:25;;;;;;;0.98;0.43;;;;;;;11.42;100.00;100698.34;6246657;28;20049;-76
2022/09/18 11:00:38;;;;;;;1.38;0.30;;;;;;;11.49;100.00;100688.28;6245830;28;20049;-75
2022/09/18 11:03:42;;;;;;;2.85;0.30;;;;;;;11.59;100.00;100681.59;6246543;28;20056;-76
2022/09/18 11:06:46;;;;;;;0.40;0.40;;;;;;;11.89;100.00;100689.47;6246336;28;20076;-76
2022/09/18 11:09:48;;;;;;;0.20;0.20;;;;;;;11.81;100.00;100678.50;6246266;28;20049;-76
2022/09/18 11:12:54;;;;;;;0.63;0.20;;;;;;;11.75;100.00;100679.72;6249741;28;20420;-76
2022/09/18 11:15:57;;;;;;;0.50;0.38;;;;;;;11.51;100.00;100682.03;6251393;28;20045;-77
2022/09/18 11:19:12;;;;;;;1.13;0.30;;;;;;;11.68;100.00;100674.00;6251516;28;20393;-77
2022/09/18 11:22:32;;;;;;;0.28;0.28;;;;;;;11.91;100.00;100677.06;6251318;28;20060;-75
2022/09/18 11:25:33;;;;;;;0.28;0.20;;;;;;;12.00;100.00;100671.25;6251151;28;20500;-78
2022/09/18 11:28:36;;;;;;;0.90;0.20;;;;;;;11.89;100.00;100684.19;6251322;28;20049;-76
2022/09/18 11:31:41;;;;;;;3.80;0.38;;;;;;;11.92;100.00;100686.66;6251059;28;20049;-77
2022/09/18 11:34:46;;;;;;;0.80;0.30;;;;;;;12.16;100.00;100679.91;6250675;28;20057;-77
2022/09/18 11:37:51;;;;;;;0.95;0.38;;;;;;;12.11;100.00;100681.13;6251322;28;20053;-76
2022/09/18 11:40:56;;;;;;;1.17;0.40;;;;;;;11.95;100.00;100697.03;6250585;28;20053;-76
2022/09/18 11:44:03;;;;;;;3.22;0.75;;;;;;;12.03;100.00;100686.84;6250908;28;20128;-76
2022/09/18 11:47:20;;;;;;;3.58;0.82;;;;;;;12.31;100.00;100685.16;6250746;28;20053;-76
2022/09/18 11:50:25;;;;;;;0.95;0.38;;;;;;;12.28;100.00;100680.09;6250762;28;20053;-78
2022/09/18 11:53:30;;;;;;;1.92;0.47;;;;;;;12.44;100.00;100675.56;6248496;28;20515;-76
2022/09/18 11:56:37;;;;;;;2.10;0.30;;;;;;;12.42;100.00;100659.84;6249529;28;20053;-75
2022/09/18 11:59:44;;;;;;;3.63;0.77;;;;;;;12.68;100.00;100662.66;6247923;28;20519;-76
2022/09/18 12:02:56;;;;;;;0.40;0.30;;;;;;;12.94;97.51;100658.31;6246057;28;20049;-78
2022/09/18 12:06:01;;;;;;;0.45;0.10;;;;;;;12.94;97.42;100671.50;6248305;28;20427;-77
2022/09/18 12:09:10;;;;;;;1.65;0.55;;;;;;;13.32;96.35;100655.03;6248207;28;20649;-75
2022/09/18 12:12:19;;;;;;;2.55;0.38;;;;;;;13.55;92.72;100648.22;6250322;28;20041;-77
2022/09/18 12:15:25;;;;;;;0.90;0.40;;;;;;;13.74;90.61;100645.16;6244658;28;20046;-77
2022/09/18 12:18:30;;;;;;;2.50;0.57;;;;;;;13.88;90.75;100643.25;6242958;28;20061;-76
2022/09/18 12:21:43;;;;;;;1.20;0.70;;;;;;;13.62;90.79;100652.09;6243259;28;20045;-78
2022/09/18 12:24:44;;;;;;;0.60;0.47;;;;;;;13.50;92.33;100652.97;6244483;28;20054;-78
2022/09/18 12:27:53;;;;;;;2.47;0.60;;;;;;;13.36;91.59;100657.34;6248415;28;20045;-78
2022/09/18 12:31:06;;;;;;;0.77;0.30;;;;;;;13.43;93.75;100648.06;6249540;28;20060;-77
2022/09/18 12:34:17;;;;;;;2.50;0.40;;;;;;;13.66;90.19;100646.53;6249699;28;20049;-76
2022/09/18 12:37:31;;;;;;;2.40;0.45;;;;;;;13.24;92.56;100641.47;6249516;28;20058;-78
2022/09/18 12:40:37;;;;;;;3.20;0.40;;;;;;;13.16;92.86;100634.03;6249596;28;20053;-78
2022/09/18 12:43:54;;;;;;;3.95;0.57;;;;;;;13.17;94.33;100628.69;6248429;28;20045;-76
2022/09/18 12:47:15;;;;;;;1.23;0.35;;;;;;;13.40;93.78;100616.63;6247337;28;20045;-78
2022/09/18 12:50:29;;;;;;;1.10;0.50;;;;;;;13.57;89.73;100618.09;6249316;28;20050;-77
2022/09/18 12:53:49;;;;;;;1.52;0.40;;;;;;;13.70;87.49;100620.75;6249452;28;20045;-78
2022/09/18 12:57:02;;;;;;;1.55;0.30;;;;;;;13.34;85.19;100614.38;6250506;28;20057;-78
2022/09/18 13:00:07;;;;;;;1.42;0.20;;;;;;;13.13;85.95;100613.16;6248988;28;20392;-79
2022/09/18 13:03:16;;;;;;;1.30;0.45;;;;;;;12.94;88.98;100626.66;6249033;28;20041;-78
2022/09/18 13:06:23;;;;;;;3.17;0.30;;;;;;;12.73;91.33;100617.53;6247008;28;20050;-78
2022/09/18 13:09:30;;;;;;;0.68;0.45;;;;;;;12.76;92.32;100612.03;6249194;28;20148;-76
2022/09/18 13:12:37;;;;;;;0.50;0.20;;;;;;;12.35;86.42;100612.88;6249157;28;20057;-76
2022/09/18 13:15:42;;;;;;;0.93;0.25;;;;;;;12.46;87.83;100609.59;6249440;28;20053;-76
2022/09/18 13:18:50;;;;;;;0.43;0.10;;;;;;;12.41;88.19;100612.53;6249492;28;20053;-77
2022/09/18 13:21:52;;;;;;;0.20;0.20;;;;;;;12.56;89.90;100614.16;6249156;28;20049;-74
2022/09/18 13:24:54;;;;;;;0.95;0.50;;;;;;;12.31;92.63;100596.44;6248886;28;20060;-76
2022/09/18 13:27:57;;;;;;;2.60;0.50;;;;;;;12.19;94.18;100600.69;6248814;28;20042;-75
2022/09/18 13:31:25;;;;;;;1.98;0.68;;;;;;;12.11;91.55;100616.13;6248117;28;20049;-75
2022/09/18 13:34:27;;;;;;;2.35;1.20;;;;;;;12.02;86.31;100616.69;6248106;28;20064;-75
2022/09/18 13:37:30;;;;;;;1.45;0.35;;;;;;;11.99;85.71;100624.78;6248260;28;20110;-75
2022/09/18 13:40:35;;;;;;;2.92;0.52;;;;;;;11.85;82.13;100632.66;6248179;28;20049;-75
2022/09/18 13:43:40;;;;;;;4.13;0.47;;;;;;;11.87;80.46;100650.06;6248335;28;20092;-76
2022/09/18 13:46:43;;;;;;;0.98;0.22;;;;;;;11.74;80.14;100632.44;6248498;28;20057;-75
2022/09/18 13:49:52;;;;;;;0.45;0.38;;;;;;;11.47;80.55;100608.59;6247583;28;20466;-75
2022/09/18 13:52:55;;;;;;;4.07;0.98;;;;;;;11.56;83.52;100597.53;6248233;28;20056;-75
2022/09/18 13:55:56;;;;;;;2.17;0.40;;;;;;;11.51;82.41;100594.34;6247356;28;20052;-75
2022/09/18 13:58:59;;;;;;;3.60;0.50;;;;;;;11.60;85.63;100599.88;6248034;28;20061;-75
2022/09/18 14:02:01;;;;;;;3.40;0.77;;;;;;;11.62;86.06;100602.41;6247232;28;20427;-75
2022/09/18 14:05:29;;;;;;;1.80;0.70;;;;;;;11.48;84.77;100605.88;6247259;28;20139;-78
2022/09/18 14:08:37;;;;;;;1.92;0.47;;;;;;;11.62;87.34;100605.88;6247443;28;20068;-77
2022/09/18 14:11:39;;;;;;;5.30;0.57;;;;;;;11.77;89.48;100604.16;6247188;28;20060;-77
2022/09/18 14:14:41;;;;;;;4.70;0.90;;;;;;;11.67;87.98;100603.84;6247123;28;20056;-79
2022/09/18 14:18:07;;;;;;;1.08;0.50;;;;;;;11.54;89.89;100599.44;6247410;28;20050;-79